createdAt,value
2017-11-04T00:00:57.917Z,31.10
2017-11-04T00:03:26.945Z,31.43
2017-11-04T00:05:55.220Z,28.67
2017-11-04T00:08:23.470Z,31.67
2017-11-04T00:10:52.504Z,30.37
2017-11-04T00:13:20.779Z,27.03
2017-11-04T00:15:49.070Z,28.23
2017-11-04T00:18:17.321Z,27.93
2017-11-04T00:20:45.609Z,29.47
2017-11-04T00:23:13.858Z,30.30
2017-11-04T00:25:42.131Z,29.93
2017-11-04T00:28:10.488Z,37.73
2017-11-04T00:30:38.765Z,36.63
2017-11-04T00:33:07.020Z,38.80
2017-11-04T00:35:35.296Z,29.50
2017-11-04T00:38:03.609Z,37.30
2017-11-04T00:40:31.874Z,36.10
2017-11-04T00:43:00.128Z,37.50
2017-11-04T00:45:29.179Z,35.63
2017-11-04T00:47:57.427Z,33.63
2017-11-04T00:50:25.704Z,30.93
2017-11-04T00:52:54.753Z,25.20
2017-11-04T00:55:23.017Z,33.00
2017-11-04T00:57:51.611Z,34.53
2017-11-04T01:00:19.887Z,29.03
2017-11-04T01:02:48.148Z,35.87
2017-11-04T01:05:16.411Z,30.40
2017-11-04T01:07:45.426Z,30.30
2017-11-04T01:10:13.690Z,28.83
2017-11-04T01:12:42.733Z,27.60
2017-11-04T01:15:10.992Z,31.40
2017-11-04T01:17:39.250Z,31.17
2017-11-04T01:20:08.284Z,30.53
2017-11-04T01:22:36.561Z,32.23
2017-11-04T01:25:04.858Z,28.10
2017-11-04T01:27:33.148Z,29.13
2017-11-04T01:30:01.389Z,30.60
2017-11-04T01:32:29.683Z,30.03
2017-11-04T01:34:57.938Z,33.53
2017-11-04T01:37:26.972Z,31.00
2017-11-04T01:39:55.224Z,27.13
2017-11-04T01:42:23.539Z,25.83
2017-11-04T01:44:51.783Z,29.63
2017-11-04T01:47:20.824Z,31.70
2017-11-04T01:49:49.071Z,31.00
2017-11-04T01:52:17.339Z,29.87
2017-11-04T01:54:46.380Z,32.20
2017-11-04T01:57:14.643Z,32.77
2017-11-04T01:59:42.887Z,29.03
2017-11-04T02:02:11.157Z,38.63
2017-11-04T02:04:39.416Z,27.57
2017-11-04T02:07:07.699Z,28.60
2017-11-04T02:09:35.947Z,29.77
2017-11-04T02:12:04.217Z,27.77
2017-11-04T02:14:33.249Z,27.83
2017-11-04T02:17:01.565Z,27.43
2017-11-04T02:19:29.806Z,31.23
2017-11-04T02:21:58.090Z,31.03
2017-11-04T02:24:26.342Z,28.60
2017-11-04T02:26:54.612Z,29.87
2017-11-04T02:29:23.651Z,33.23
2017-11-04T02:31:51.933Z,26.83
2017-11-04T02:34:20.186Z,28.57
2017-11-04T02:36:48.461Z,28.10
2017-11-04T02:39:16.714Z,28.80
2017-11-04T02:41:44.981Z,33.07
2017-11-04T02:44:13.799Z,28.63
2017-11-04T02:46:42.832Z,30.90
2017-11-04T02:49:11.103Z,34.77
2017-11-04T02:51:39.374Z,31.90
2017-11-04T02:54:08.382Z,29.50
2017-11-04T02:56:36.679Z,28.03
2017-11-04T02:59:04.938Z,27.37
2017-11-04T03:01:33.207Z,27.10
2017-11-04T03:04:01.462Z,32.97
2017-11-04T03:06:29.747Z,32.13
2017-11-04T03:08:57.997Z,29.70
2017-11-04T03:11:26.262Z,25.57
2017-11-04T03:13:54.511Z,27.57
2017-11-04T03:16:23.548Z,28.33
2017-11-04T03:18:51.801Z,31.40
2017-11-04T03:21:20.087Z,27.87
2017-11-04T03:23:48.330Z,27.83
2017-11-04T03:26:17.393Z,26.97
2017-11-04T03:28:45.642Z,27.00
2017-11-04T03:31:13.948Z,31.63
2017-11-04T03:33:42.236Z,28.27
2017-11-04T03:36:10.515Z,29.97
2017-11-04T03:38:38.792Z,30.50
2017-11-04T03:41:07.062Z,31.10
2017-11-04T03:43:35.305Z,27.27
2017-11-04T03:46:03.609Z,27.27
2017-11-04T03:48:31.882Z,32.83
2017-11-04T03:51:00.926Z,28.30
2017-11-04T03:53:29.293Z,30.00
2017-11-04T03:55:57.889Z,31.27
2017-11-04T03:58:26.151Z,31.20
2017-11-04T04:00:54.410Z,26.80
2017-11-04T04:03:23.459Z,27.17
2017-11-04T04:05:51.718Z,23.83
2017-11-04T04:08:20.010Z,27.77
2017-11-04T04:10:48.252Z,27.73
2017-11-04T04:13:16.518Z,33.47
2017-11-04T04:15:45.542Z,24.57
2017-11-04T04:18:13.810Z,28.70
2017-11-04T04:20:42.827Z,30.63
2017-11-04T04:23:11.092Z,27.70
2017-11-04T04:25:39.350Z,27.77
2017-11-04T04:28:08.400Z,32.00
2017-11-04T04:30:36.947Z,29.27
2017-11-04T04:33:06.091Z,32.23
2017-11-04T04:35:34.350Z,27.87
2017-11-04T04:38:02.623Z,26.97
2017-11-04T04:40:30.876Z,33.17
2017-11-04T04:42:59.138Z,29.10
2017-11-04T04:45:27.391Z,24.30
2017-11-04T04:47:55.661Z,27.53
2017-11-04T04:50:23.918Z,24.70
2017-11-04T04:52:52.204Z,26.40
2017-11-04T04:55:20.453Z,27.53
2017-11-04T04:57:49.488Z,27.90
2017-11-04T05:00:17.737Z,32.63
2017-11-04T05:02:46.771Z,28.60
2017-11-04T05:05:15.058Z,37.77
2017-11-04T05:07:43.357Z,25.47
2017-11-04T05:10:11.598Z,31.00
2017-11-04T05:12:39.865Z,29.60
2017-11-04T05:15:08.885Z,27.40
2017-11-04T05:17:38.019Z,27.07
2017-11-04T05:20:06.256Z,25.67
2017-11-04T05:22:34.539Z,25.57
2017-11-04T05:25:03.551Z,27.87
2017-11-04T05:27:31.818Z,25.40
2017-11-04T05:30:00.833Z,26.93
2017-11-04T05:32:29.100Z,27.10
2017-11-04T05:34:57.694Z,28.83
2017-11-04T05:37:26.005Z,28.37
2017-11-04T05:39:54.255Z,23.83
2017-11-04T05:42:22.521Z,28.97
2017-11-04T05:44:51.544Z,26.80
2017-11-04T05:47:19.853Z,31.20
2017-11-04T05:49:48.095Z,26.17
2017-11-04T05:52:17.230Z,26.90
2017-11-04T05:54:45.506Z,23.97
2017-11-04T05:57:13.779Z,26.80
2017-11-04T05:59:42.043Z,30.07
2017-11-04T06:02:10.319Z,27.67
2017-11-04T06:04:38.570Z,29.67
2017-11-04T06:07:06.832Z,32.30
2017-11-04T06:09:35.086Z,31.33
2017-11-04T06:12:03.355Z,29.53
2017-11-04T06:14:31.600Z,32.50
2017-11-04T06:16:59.866Z,25.60
2017-11-04T06:19:28.116Z,31.33
2017-11-04T06:21:56.688Z,28.00
2017-11-04T06:24:25.000Z,26.60
2017-11-04T06:26:53.264Z,29.90
2017-11-04T06:29:21.523Z,27.47
2017-11-04T06:31:49.834Z,26.40
2017-11-04T06:34:18.089Z,28.27
2017-11-04T06:36:47.418Z,25.73
2017-11-04T06:39:15.665Z,24.10
2017-11-04T06:41:44.686Z,37.33
2017-11-04T06:44:12.982Z,30.83
2017-11-04T06:46:41.231Z,30.70
2017-11-04T06:49:09.526Z,37.40
2017-11-04T06:51:37.799Z,36.67
2017-11-04T06:54:06.846Z,32.60
2017-11-04T06:56:35.116Z,37.37
2017-11-04T06:59:03.388Z,30.40
2017-11-04T07:01:31.643Z,28.00
2017-11-04T07:03:59.935Z,30.97
2017-11-04T07:06:28.397Z,36.90
2017-11-04T07:08:57.287Z,34.70
2017-11-04T07:11:26.333Z,44.10
2017-11-04T07:13:54.591Z,37.60
2017-11-04T07:16:22.896Z,32.50
2017-11-04T07:18:51.268Z,28.73
2017-11-04T07:21:19.527Z,30.20
2017-11-04T07:23:47.803Z,26.70
2017-11-04T07:26:16.831Z,26.07
2017-11-04T07:28:45.113Z,29.73
2017-11-04T07:31:13.366Z,30.97
2017-11-04T07:33:41.636Z,32.20
2017-11-04T07:36:11.079Z,33.27
2017-11-04T07:38:39.342Z,36.90
2017-11-04T07:41:07.608Z,38.70
2017-11-04T07:43:36.650Z,33.27
2017-11-04T07:49:02.495Z,34.17
2017-11-04T07:51:30.753Z,36.90
2017-11-04T07:53:59.040Z,36.60
2017-11-04T07:56:27.287Z,41.07
2017-11-04T07:58:56.413Z,38.60
2017-11-04T08:01:24.656Z,35.70
2017-11-04T08:03:52.993Z,35.87
2017-11-04T08:06:21.413Z,33.00
2017-11-04T08:08:49.661Z,38.93
2017-11-04T08:11:17.943Z,37.23
2017-11-04T08:13:46.439Z,37.67
2017-11-04T08:16:14.703Z,39.97
2017-11-04T08:18:42.972Z,37.83
2017-11-04T08:21:11.274Z,40.30
2017-11-04T08:23:39.558Z,37.53
2017-11-04T08:26:07.805Z,41.80
2017-11-04T08:28:36.075Z,37.70
2017-11-04T08:31:04.388Z,37.47
2017-11-04T08:33:33.207Z,44.23
2017-11-04T08:36:01.591Z,40.27
2017-11-04T08:38:29.889Z,37.00
2017-11-04T08:40:58.147Z,40.47
2017-11-04T08:43:26.431Z,43.20
2017-11-04T08:45:54.654Z,41.93
2017-11-04T08:48:22.927Z,41.20
2017-11-04T08:50:52.268Z,43.20
2017-11-04T08:53:20.535Z,43.00
2017-11-04T08:55:48.792Z,41.37
2017-11-04T08:58:17.977Z,40.90
2017-11-04T09:00:46.203Z,44.67
2017-11-04T09:03:14.459Z,39.57
2017-11-04T09:05:43.494Z,42.10
2017-11-04T09:08:11.926Z,39.77
2017-11-04T09:10:40.304Z,43.47
2017-11-04T09:13:09.372Z,40.87
2017-11-04T09:15:37.655Z,38.37
2017-11-04T09:18:05.937Z,42.13
2017-11-04T09:20:34.228Z,46.20
2017-11-04T09:23:02.493Z,42.83
2017-11-04T09:25:30.768Z,43.30
2017-11-04T09:27:59.065Z,52.87
2017-11-04T09:30:27.579Z,46.87
2017-11-04T09:32:56.133Z,48.57
2017-11-04T09:35:24.431Z,48.90
2017-11-04T09:37:52.710Z,48.60
2017-11-04T09:40:20.974Z,62.33
2017-11-04T09:42:49.235Z,47.37
2017-11-04T09:45:17.518Z,45.40
2017-11-04T09:47:45.946Z,46.60
2017-11-04T09:50:14.531Z,49.77
2017-11-04T09:52:42.915Z,46.50
2017-11-04T09:55:12.341Z,46.20
2017-11-04T09:57:40.786Z,55.37
2017-11-04T10:00:09.397Z,51.13
2017-11-04T10:02:37.710Z,44.67
2017-11-04T10:05:05.997Z,50.17
2017-11-04T10:07:34.547Z,50.37
2017-11-04T10:10:03.597Z,46.60
2017-11-04T10:12:31.900Z,52.40
2017-11-04T10:15:00.153Z,49.13
2017-11-04T10:17:28.464Z,51.37
2017-11-04T10:19:56.742Z,49.27
2017-11-04T10:22:25.011Z,53.50
2017-11-04T10:24:53.273Z,55.00
2017-11-04T10:27:21.548Z,53.40
2017-11-04T10:29:49.804Z,55.47
2017-11-04T10:32:18.837Z,52.20
2017-11-04T10:34:47.091Z,51.63
2017-11-04T10:37:15.762Z,51.73
2017-11-04T10:39:44.007Z,52.80
2017-11-04T10:42:12.278Z,50.57
2017-11-04T10:44:40.536Z,56.77
2017-11-04T10:47:08.811Z,51.50
2017-11-04T10:49:38.090Z,55.70
2017-11-04T10:52:06.599Z,55.13
2017-11-04T10:54:34.977Z,55.20
2017-11-04T10:57:03.652Z,58.20
2017-11-04T10:59:32.943Z,55.87
2017-11-04T11:02:01.529Z,52.70
2017-11-04T11:04:29.937Z,53.33
2017-11-04T11:06:58.419Z,52.40
2017-11-04T11:09:26.796Z,53.93
2017-11-04T11:11:55.163Z,60.53
2017-11-04T11:14:23.435Z,61.53
2017-11-04T11:16:51.694Z,58.20
2017-11-04T11:19:19.969Z,57.53
2017-11-04T11:21:48.233Z,66.73
2017-11-04T11:24:17.267Z,65.10
2017-11-04T11:26:45.519Z,66.83
2017-11-04T11:29:14.556Z,60.20
2017-11-04T11:31:42.812Z,65.90
2017-11-04T11:34:11.080Z,68.97
2017-11-04T11:36:40.112Z,63.13
2017-11-04T11:39:08.490Z,68.63
2017-11-04T11:41:36.751Z,69.43
2017-11-04T11:44:05.020Z,60.33
2017-11-04T11:46:34.032Z,71.50
2017-11-04T11:49:02.306Z,69.90
2017-11-04T11:51:30.561Z,74.80
2017-11-04T11:53:58.839Z,69.97
2017-11-04T11:56:27.869Z,67.67
2017-11-04T11:58:56.180Z,72.77
2017-11-04T12:01:24.437Z,72.07
2017-11-04T12:03:52.718Z,70.87
2017-11-04T12:06:21.014Z,65.43
2017-11-04T12:08:49.299Z,76.50
2017-11-04T12:11:17.579Z,67.03
2017-11-04T12:13:45.838Z,62.33
2017-11-04T12:16:14.156Z,64.17
2017-11-04T12:18:42.420Z,68.23
2017-11-04T12:21:10.715Z,63.60
2017-11-04T12:23:38.981Z,62.33
2017-11-04T12:26:07.231Z,60.60
2017-11-04T12:28:36.276Z,71.73
2017-11-04T12:31:04.530Z,68.40
2017-11-04T12:33:32.833Z,76.80
2017-11-04T12:36:01.117Z,60.30
2017-11-04T12:38:29.391Z,68.70
2017-11-04T12:40:57.666Z,61.40
2017-11-04T12:43:25.940Z,61.80
2017-11-04T12:45:54.192Z,66.13
2017-11-04T12:48:23.237Z,71.20
2017-11-04T12:50:51.497Z,58.70
2017-11-04T12:53:19.791Z,61.60
2017-11-04T12:55:48.081Z,60.80
2017-11-04T12:58:16.327Z,58.90
2017-11-04T13:00:44.605Z,65.03
2017-11-04T13:03:12.857Z,66.00
2017-11-04T13:05:41.897Z,72.17
2017-11-04T13:08:10.147Z,65.63
2017-11-04T13:10:39.206Z,67.83
2017-11-04T13:13:07.450Z,59.23
2017-11-04T13:15:35.732Z,65.13
2017-11-04T13:18:03.994Z,58.43
2017-11-04T13:20:33.030Z,66.73
2017-11-04T13:23:01.282Z,58.63
2017-11-04T13:25:29.599Z,59.57
2017-11-04T13:27:57.851Z,57.47
2017-11-04T13:30:26.167Z,62.20
2017-11-04T13:32:54.457Z,56.23
2017-11-04T13:35:22.719Z,65.27
2017-11-04T13:37:51.021Z,62.17
2017-11-04T13:40:19.288Z,59.23
2017-11-04T13:42:47.566Z,64.87
2017-11-04T13:45:15.842Z,57.33
2017-11-04T13:47:44.099Z,56.17
2017-11-04T13:50:13.236Z,55.77
2017-11-04T13:52:41.486Z,65.57
2017-11-04T13:55:09.768Z,57.10
2017-11-04T13:57:38.385Z,56.13
2017-11-04T14:00:06.682Z,59.67
2017-11-04T14:02:34.948Z,61.60
2017-11-04T14:05:03.220Z,60.90
2017-11-04T14:07:31.516Z,63.50
2017-11-04T14:09:59.777Z,57.50
2017-11-04T14:12:28.078Z,55.00
2017-11-04T14:14:56.347Z,56.10
2017-11-04T14:17:24.620Z,49.63
2017-11-04T14:19:52.950Z,54.90
2017-11-04T14:22:21.188Z,56.30
2017-11-04T14:24:49.470Z,53.63
2017-11-04T14:27:17.743Z,54.70
2017-11-04T14:29:46.041Z,52.70
2017-11-04T14:32:14.307Z,50.90
2017-11-04T14:34:42.584Z,53.33
2017-11-04T14:37:10.834Z,57.10
2017-11-04T14:39:39.871Z,58.33
2017-11-04T14:42:08.146Z,52.83
2017-11-04T14:44:36.429Z,52.67
2017-11-04T14:47:04.760Z,58.60
2017-11-04T14:49:33.033Z,52.37
2017-11-04T14:52:01.413Z,57.10
2017-11-04T14:54:29.792Z,50.93
2017-11-04T14:56:58.076Z,53.60
2017-11-04T14:59:26.385Z,54.43
2017-11-04T15:01:55.433Z,49.77
2017-11-04T15:04:23.708Z,52.30
2017-11-04T15:06:51.980Z,49.97
2017-11-04T15:09:20.238Z,50.63
2017-11-04T15:11:48.507Z,50.00
2017-11-04T15:14:16.877Z,53.07
2017-11-04T15:16:45.138Z,49.30
2017-11-04T15:19:13.415Z,48.70
2017-11-04T15:21:41.672Z,55.60
2017-11-04T15:24:09.959Z,56.17
2017-11-04T15:26:38.233Z,51.17
2017-11-04T15:29:07.319Z,54.97
2017-11-04T15:31:36.358Z,54.73
2017-11-04T15:34:04.649Z,53.03
2017-11-04T15:36:32.904Z,59.37
2017-11-04T15:39:01.197Z,56.17
2017-11-04T15:41:29.586Z,50.07
2017-11-04T15:43:57.838Z,54.70
2017-11-04T15:46:26.166Z,55.40
2017-11-04T15:48:54.425Z,55.63
2017-11-04T15:51:22.690Z,51.40
2017-11-04T15:53:50.968Z,56.47
2017-11-04T15:56:19.236Z,53.43
2017-11-04T15:58:47.543Z,53.47
2017-11-04T16:01:15.839Z,52.80
2017-11-04T16:03:44.147Z,55.43
2017-11-04T16:06:12.401Z,53.73
2017-11-04T16:08:40.668Z,51.10
2017-11-04T16:11:08.944Z,55.57
2017-11-04T16:13:37.822Z,50.10
2017-11-04T16:16:06.134Z,49.70
2017-11-04T16:18:34.388Z,48.30
2017-11-04T16:21:02.713Z,51.70
2017-11-04T16:23:30.954Z,50.40
2017-11-04T16:25:59.227Z,50.80
2017-11-04T16:28:27.555Z,48.90
2017-11-04T16:30:55.821Z,50.60
2017-11-04T16:33:24.102Z,52.83
2017-11-04T16:35:52.380Z,56.63
2017-11-04T16:38:20.655Z,49.17
2017-11-04T16:40:48.919Z,52.00
2017-11-04T16:43:17.179Z,49.10
2017-11-04T16:45:46.223Z,50.10
2017-11-04T16:48:14.476Z,52.90
2017-11-04T16:50:42.757Z,56.60
2017-11-04T16:53:11.011Z,53.20
2017-11-04T16:55:40.057Z,53.33
2017-11-04T16:58:08.307Z,49.30
2017-11-04T17:00:37.338Z,54.13
2017-11-04T17:03:05.633Z,52.97
2017-11-04T17:05:33.899Z,54.50
2017-11-04T17:08:02.160Z,46.00
2017-11-04T17:10:30.436Z,50.20
2017-11-04T17:12:58.690Z,54.93
2017-11-04T17:15:27.767Z,54.20
2017-11-04T17:17:56.127Z,53.60
2017-11-04T17:20:24.399Z,55.03
2017-11-04T17:22:52.689Z,49.80
2017-11-04T17:25:20.968Z,56.87
2017-11-04T17:27:49.220Z,54.47
2017-11-04T17:30:17.506Z,50.90
2017-11-04T17:32:45.767Z,54.73
2017-11-04T17:35:14.824Z,56.47
2017-11-04T17:37:43.112Z,50.50
2017-11-04T17:40:11.395Z,50.33
2017-11-04T17:42:39.648Z,53.60
2017-11-04T17:45:07.936Z,51.60
2017-11-04T17:47:36.221Z,47.50
2017-11-04T17:50:04.508Z,49.20
2017-11-04T17:52:32.780Z,51.93
2017-11-04T17:55:01.068Z,52.00
2017-11-04T17:57:29.484Z,53.70
2017-11-04T17:59:57.834Z,57.72
2017-11-04T18:02:26.107Z,50.23
2017-11-04T18:04:54.379Z,50.07
2017-11-04T18:07:22.636Z,53.63
2017-11-04T18:09:51.691Z,55.97
2017-11-04T18:12:20.035Z,51.03
2017-11-04T18:14:49.068Z,53.63
2017-11-04T18:17:17.323Z,50.40
2017-11-04T18:19:45.603Z,44.87
2017-11-04T18:22:13.913Z,47.93
2017-11-04T18:24:42.189Z,46.57
2017-11-04T18:27:10.445Z,50.73
2017-11-04T18:29:38.718Z,50.83
2017-11-04T18:32:07.034Z,51.63
2017-11-04T18:34:35.401Z,48.90
2017-11-04T18:37:03.743Z,49.33
2017-11-04T18:39:32.105Z,49.00
2017-11-04T18:42:00.370Z,50.53
2017-11-04T18:44:28.626Z,50.13
2017-11-04T18:46:56.899Z,47.57
2017-11-04T18:49:25.169Z,51.07
2017-11-04T18:51:53.495Z,50.60
2017-11-04T18:54:21.761Z,55.67
2017-11-04T18:56:50.028Z,48.13
2017-11-04T18:59:18.298Z,47.00
2017-11-04T19:01:46.626Z,52.57
2017-11-04T19:04:14.903Z,52.93
2017-11-04T19:06:43.185Z,56.57
2017-11-04T19:09:11.458Z,47.83
2017-11-04T19:11:39.745Z,48.70
2017-11-04T19:14:08.008Z,49.87
2017-11-04T19:16:36.309Z,47.50
2017-11-04T19:19:04.579Z,48.43
2017-11-04T19:21:32.864Z,54.40
2017-11-04T19:24:01.121Z,44.87
2017-11-04T19:26:29.394Z,43.13
2017-11-04T19:28:57.696Z,46.43
2017-11-04T19:31:25.968Z,45.43
2017-11-04T19:33:54.259Z,43.50
2017-11-04T19:36:22.880Z,43.67
2017-11-04T19:38:51.914Z,44.93
2017-11-04T19:41:20.362Z,47.30
2017-11-04T19:43:48.846Z,40.13
2017-11-04T19:46:17.944Z,40.10
2017-11-04T19:48:46.299Z,38.17
2017-11-04T19:51:14.607Z,38.77
2017-11-04T19:53:42.893Z,34.50
2017-11-04T19:56:11.199Z,41.47
2017-11-04T19:58:40.237Z,39.40
2017-11-04T20:01:08.530Z,48.13
2017-11-04T20:03:36.802Z,41.40
2017-11-04T20:06:05.084Z,37.53
2017-11-04T20:08:33.406Z,37.63
2017-11-04T20:11:01.667Z,34.83
2017-11-04T20:13:30.034Z,34.73
2017-11-04T20:15:58.354Z,34.47
2017-11-04T20:18:26.728Z,38.20
2017-11-04T20:20:55.074Z,35.33
2017-11-04T20:23:23.987Z,36.83
2017-11-04T20:25:52.384Z,39.40
2017-11-04T20:28:20.872Z,37.60
2017-11-04T20:30:49.969Z,37.50
2017-11-04T20:33:18.261Z,37.10
2017-11-04T20:35:46.519Z,37.83
2017-11-04T20:38:14.814Z,37.93
2017-11-04T20:40:43.165Z,37.77
2017-11-04T20:43:11.432Z,34.63
2017-11-04T20:45:39.689Z,34.40
2017-11-04T20:48:07.995Z,28.97
2017-11-04T20:50:36.252Z,34.83
2017-11-04T20:53:06.309Z,38.40
2017-11-04T20:55:34.608Z,39.33
2017-11-04T20:58:02.984Z,34.83
2017-11-04T21:00:31.256Z,35.93
2017-11-04T21:02:59.536Z,34.03
2017-11-04T21:05:27.801Z,34.93
2017-11-04T21:07:56.103Z,34.43
2017-11-04T21:10:24.376Z,37.80
2017-11-04T21:12:52.635Z,37.03
2017-11-04T21:15:20.911Z,34.10
2017-11-04T21:17:49.195Z,40.57
2017-11-04T21:20:17.503Z,34.67
2017-11-04T21:22:45.765Z,32.80
2017-11-04T21:25:14.063Z,33.73
2017-11-04T21:27:42.319Z,32.40
2017-11-04T21:30:11.968Z,34.47
2017-11-04T21:32:40.223Z,29.57
2017-11-04T21:35:08.491Z,31.43
2017-11-04T21:37:36.753Z,26.50
2017-11-04T21:40:05.793Z,33.20
2017-11-04T21:42:34.175Z,34.40
2017-11-04T21:45:02.477Z,32.43
2017-11-04T21:47:30.724Z,30.93
2017-11-04T21:49:59.497Z,31.03
2017-11-04T21:52:28.162Z,29.77
2017-11-04T21:54:58.038Z,27.10
2017-11-04T21:57:26.771Z,32.33
2017-11-04T21:59:55.123Z,27.97
2017-11-04T22:02:23.383Z,30.77
2017-11-04T22:04:51.641Z,31.80
2017-11-04T22:07:20.789Z,32.80
2017-11-04T22:09:49.058Z,32.90
2017-11-04T22:12:17.351Z,28.97
2017-11-04T22:14:45.639Z,29.90
2017-11-04T22:17:14.016Z,32.17
2017-11-04T22:19:42.274Z,32.27
2017-11-04T22:22:10.579Z,27.60
2017-11-04T22:24:38.831Z,31.73
2017-11-04T22:27:07.100Z,31.60
2017-11-04T22:29:36.123Z,29.70
2017-11-04T22:32:04.402Z,29.43
2017-11-04T22:34:32.701Z,36.03
2017-11-04T22:37:00.966Z,36.37
2017-11-04T22:39:29.266Z,27.53
2017-11-04T22:41:57.639Z,28.67
2017-11-04T22:44:25.922Z,33.97
2017-11-04T22:46:54.223Z,33.13
2017-11-04T22:49:22.522Z,30.33
2017-11-04T22:51:50.810Z,32.70
2017-11-04T22:54:19.157Z,31.30
2017-11-04T22:56:47.451Z,32.13
2017-11-04T22:59:15.733Z,31.07
2017-11-04T23:01:44.033Z,31.50
2017-11-04T23:04:12.304Z,32.97
2017-11-04T23:06:40.681Z,35.50
2017-11-04T23:09:08.959Z,27.90
2017-11-04T23:11:37.244Z,35.93
2017-11-04T23:14:07.038Z,31.67
2017-11-04T23:16:35.330Z,31.33
2017-11-04T23:19:03.620Z,41.97
2017-11-04T23:21:31.908Z,37.83
2017-11-04T23:24:00.173Z,35.10
2017-11-04T23:26:29.225Z,37.87
2017-11-04T23:28:57.605Z,40.87
2017-11-04T23:31:25.903Z,38.93
2017-11-04T23:33:54.178Z,38.53
2017-11-04T23:36:22.479Z,36.73
2017-11-04T23:38:50.757Z,35.50
2017-11-04T23:41:19.039Z,42.43
2017-11-04T23:43:47.321Z,35.90
2017-11-04T23:46:15.619Z,38.10
2017-11-04T23:48:44.653Z,35.17
2017-11-04T23:51:12.940Z,34.80
2017-11-04T23:53:41.218Z,36.87
2017-11-04T23:56:09.493Z,35.50
2017-11-04T23:58:37.783Z,32.37
